sensor_id;sensor_type;location;lat;lon;timestamp;P1;durP1;ratioP1;P2;durP2;ratioP2
5967;SDS011;3010;51.028;4.170;2023-04-07T00:00:47;28.23;;;15.87;;
5967;SDS011;3010;51.028;4.170;2023-04-07T00:03:13;29.43;;;16.07;;
5967;SDS011;3010;51.028;4.170;2023-04-07T00:05:40;30.30;;;19.23;;
5967;SDS011;3010;51.028;4.170;2023-04-07T00:08:06;31.17;;;16.63;;
5967;SDS011;3010;51.028;4.170;2023-04-07T00:10:33;25.90;;;15.27;;
5967;SDS011;3010;51.028;4.170;2023-04-07T00:13:00;26.97;;;14.90;;
5967;SDS011;3010;51.028;4.170;2023-04-07T00:15:26;26.63;;;15.67;;
5967;SDS011;3010;51.028;4.170;2023-04-07T00:17:53;23.40;;;16.03;;
5967;SDS011;3010;51.028;4.170;2023-04-07T00:20:19;23.53;;;14.97;;
5967;SDS011;3010;51.028;4.170;2023-04-07T00:22:46;28.63;;;16.33;;
5967;SDS011;3010;51.028;4.170;2023-04-07T00:25:13;25.17;;;15.90;;
5967;SDS011;3010;51.028;4.170;2023-04-07T00:27:39;23.97;;;15.03;;
5967;SDS011;3010;51.028;4.170;2023-04-07T00:30:06;26.40;;;15.23;;
5967;SDS011;3010;51.028;4.170;2023-04-07T00:32:32;26.47;;;15.57;;
5967;SDS011;3010;51.028;4.170;2023-04-07T00:34:59;26.47;;;14.87;;
5967;SDS011;3010;51.028;4.170;2023-04-07T00:37:25;29.27;;;16.63;;
5967;SDS011;3010;51.028;4.170;2023-04-07T00:39:52;27.27;;;15.93;;
5967;SDS011;3010;51.028;4.170;2023-04-07T00:42:19;30.97;;;16.63;;
5967;SDS011;3010;51.028;4.170;2023-04-07T00:44:45;32.80;;;16.40;;
5967;SDS011;3010;51.028;4.170;2023-04-07T00:47:12;30.03;;;17.07;;
5967;SDS011;3010;51.028;4.170;2023-04-07T00:49:38;32.37;;;17.30;;
5967;SDS011;3010;51.028;4.170;2023-04-07T00:52:05;30.57;;;16.43;;
5967;SDS011;3010;51.028;4.170;2023-04-07T00:54:32;28.43;;;16.80;;
5967;SDS011;3010;51.028;4.170;2023-04-07T00:56:58;30.10;;;17.30;;
5967;SDS011;3010;51.028;4.170;2023-04-07T00:59:25;36.30;;;17.70;;
5967;SDS011;3010;51.028;4.170;2023-04-07T01:01:57;31.17;;;16.83;;
5967;SDS011;3010;51.028;4.170;2023-04-07T01:04:29;33.90;;;17.67;;
5967;SDS011;3010;51.028;4.170;2023-04-07T01:07:15;32.80;;;16.73;;
5967;SDS011;3010;51.028;4.170;2023-04-07T01:09:43;31.07;;;16.97;;
5967;SDS011;3010;51.028;4.170;2023-04-07T01:12:23;43.60;;;20.37;;
5967;SDS011;3010;51.028;4.170;2023-04-07T01:14:53;42.97;;;20.83;;
5967;SDS011;3010;51.028;4.170;2023-04-07T01:17:17;44.97;;;21.50;;
5967;SDS011;3010;51.028;4.170;2023-04-07T01:19:52;48.03;;;21.87;;
5967;SDS011;3010;51.028;4.170;2023-04-07T01:22:16;58.87;;;23.87;;
5967;SDS011;3010;51.028;4.170;2023-04-07T01:30:26;53.40;;;21.77;;
5967;SDS011;3010;51.028;4.170;2023-04-07T01:32:51;58.50;;;27.33;;
5967;SDS011;3010;51.028;4.170;2023-04-07T01:35:18;62.45;;;26.48;;
5967;SDS011;3010;51.028;4.170;2023-04-07T01:37:44;46.20;;;22.13;;
5967;SDS011;3010;51.028;4.170;2023-04-07T01:40:11;48.67;;;20.27;;
5967;SDS011;3010;51.028;4.170;2023-04-07T01:42:38;41.93;;;19.70;;
5967;SDS011;3010;51.028;4.170;2023-04-07T01:45:04;49.70;;;23.77;;
5967;SDS011;3010;51.028;4.170;2023-04-07T01:47:31;47.78;;;22.15;;
5967;SDS011;3010;51.028;4.170;2023-04-07T01:49:58;45.58;;;22.00;;
5967;SDS011;3010;51.028;4.170;2023-04-07T01:52:25;32.33;;;17.27;;
5967;SDS011;3010;51.028;4.170;2023-04-07T01:54:51;31.80;;;16.30;;
5967;SDS011;3010;51.028;4.170;2023-04-07T01:57:17;21.17;;;15.27;;
5967;SDS011;3010;51.028;4.170;2023-04-07T01:59:44;29.63;;;15.17;;
5967;SDS011;3010;51.028;4.170;2023-04-07T02:02:10;28.03;;;14.03;;
5967;SDS011;3010;51.028;4.170;2023-04-07T02:04:44;21.70;;;14.23;;
5967;SDS011;3010;51.028;4.170;2023-04-07T02:07:34;27.17;;;13.87;;
5967;SDS011;3010;51.028;4.170;2023-04-07T02:09:58;23.63;;;13.57;;
5967;SDS011;3010;51.028;4.170;2023-04-07T02:12:25;24.20;;;13.47;;
5967;SDS011;3010;51.028;4.170;2023-04-07T02:14:51;24.00;;;16.62;;
5967;SDS011;3010;51.028;4.170;2023-04-07T02:17:17;23.63;;;13.37;;
5967;SDS011;3010;51.028;4.170;2023-04-07T02:19:44;24.27;;;13.97;;
5967;SDS011;3010;51.028;4.170;2023-04-07T02:22:10;22.80;;;13.53;;
5967;SDS011;3010;51.028;4.170;2023-04-07T02:24:40;27.83;;;14.37;;
5967;SDS011;3010;51.028;4.170;2023-04-07T02:27:03;31.90;;;14.13;;
5967;SDS011;3010;51.028;4.170;2023-04-07T02:29:30;30.60;;;14.13;;
5967;SDS011;3010;51.028;4.170;2023-04-07T02:31:57;33.27;;;13.87;;
5967;SDS011;3010;51.028;4.170;2023-04-07T02:34:23;35.97;;;14.90;;
5967;SDS011;3010;51.028;4.170;2023-04-07T02:36:50;40.80;;;15.73;;
5967;SDS011;3010;51.028;4.170;2023-04-07T02:39:16;42.00;;;15.73;;
5967;SDS011;3010;51.028;4.170;2023-04-07T02:41:43;41.63;;;16.57;;
5967;SDS011;3010;51.028;4.170;2023-04-07T02:44:10;39.67;;;15.53;;
5967;SDS011;3010;51.028;4.170;2023-04-07T02:46:36;42.30;;;15.97;;
5967;SDS011;3010;51.028;4.170;2023-04-07T02:49:03;42.60;;;15.73;;
5967;SDS011;3010;51.028;4.170;2023-04-07T02:51:29;39.00;;;17.00;;
5967;SDS011;3010;51.028;4.170;2023-04-07T02:53:56;36.23;;;16.07;;
5967;SDS011;3010;51.028;4.170;2023-04-07T02:56:22;40.27;;;16.27;;
5967;SDS011;3010;51.028;4.170;2023-04-07T02:58:49;37.70;;;16.87;;
5967;SDS011;3010;51.028;4.170;2023-04-07T03:01:16;42.17;;;17.40;;
5967;SDS011;3010;51.028;4.170;2023-04-07T03:03:42;36.77;;;16.00;;
5967;SDS011;3010;51.028;4.170;2023-04-07T03:06:09;38.23;;;17.43;;
5967;SDS011;3010;51.028;4.170;2023-04-07T03:08:35;37.63;;;17.87;;
5967;SDS011;3010;51.028;4.170;2023-04-07T03:11:02;46.47;;;17.30;;
5967;SDS011;3010;51.028;4.170;2023-04-07T03:13:29;42.63;;;18.43;;
5967;SDS011;3010;51.028;4.170;2023-04-07T03:15:56;38.40;;;18.37;;
5967;SDS011;3010;51.028;4.170;2023-04-07T03:18:22;42.40;;;18.20;;
5967;SDS011;3010;51.028;4.170;2023-04-07T03:20:48;44.73;;;17.13;;
5967;SDS011;3010;51.028;4.170;2023-04-07T03:23:15;43.30;;;18.90;;
5967;SDS011;3010;51.028;4.170;2023-04-07T03:25:43;44.80;;;18.70;;
5967;SDS011;3010;51.028;4.170;2023-04-07T03:28:08;52.20;;;19.10;;
5967;SDS011;3010;51.028;4.170;2023-04-07T03:30:35;46.33;;;19.47;;
5967;SDS011;3010;51.028;4.170;2023-04-07T03:33:01;49.37;;;18.80;;
5967;SDS011;3010;51.028;4.170;2023-04-07T03:35:28;38.90;;;18.20;;
5967;SDS011;3010;51.028;4.170;2023-04-07T03:37:54;49.27;;;19.43;;
5967;SDS011;3010;51.028;4.170;2023-04-07T03:40:21;52.03;;;20.37;;
5967;SDS011;3010;51.028;4.170;2023-04-07T03:42:48;59.47;;;22.53;;
5967;SDS011;3010;51.028;4.170;2023-04-07T03:45:14;58.53;;;21.00;;
5967;SDS011;3010;51.028;4.170;2023-04-07T03:47:41;46.33;;;20.03;;
5967;SDS011;3010;51.028;4.170;2023-04-07T03:50:07;50.87;;;20.27;;
5967;SDS011;3010;51.028;4.170;2023-04-07T03:52:34;49.27;;;20.47;;
5967;SDS011;3010;51.028;4.170;2023-04-07T03:55:01;53.70;;;21.47;;
5967;SDS011;3010;51.028;4.170;2023-04-07T03:57:27;47.10;;;20.23;;
5967;SDS011;3010;51.028;4.170;2023-04-07T03:59:54;47.27;;;20.10;;
5967;SDS011;3010;51.028;4.170;2023-04-07T04:02:20;47.63;;;19.20;;
5967;SDS011;3010;51.028;4.170;2023-04-07T04:04:47;60.70;;;22.23;;
5967;SDS011;3010;51.028;4.170;2023-04-07T04:07:13;56.53;;;21.00;;
5967;SDS011;3010;51.028;4.170;2023-04-07T04:09:40;49.53;;;19.97;;
5967;SDS011;3010;51.028;4.170;2023-04-07T04:12:07;47.13;;;19.30;;
5967;SDS011;3010;51.028;4.170;2023-04-07T04:14:33;52.37;;;20.30;;
5967;SDS011;3010;51.028;4.170;2023-04-07T04:17:00;51.03;;;19.23;;
5967;SDS011;3010;51.028;4.170;2023-04-07T04:19:26;35.07;;;17.83;;
5967;SDS011;3010;51.028;4.170;2023-04-07T04:21:53;45.77;;;19.23;;
5967;SDS011;3010;51.028;4.170;2023-04-07T04:24:20;39.37;;;18.13;;
5967;SDS011;3010;51.028;4.170;2023-04-07T04:26:46;42.30;;;18.40;;
5967;SDS011;3010;51.028;4.170;2023-04-07T04:29:13;44.37;;;18.33;;
5967;SDS011;3010;51.028;4.170;2023-04-07T04:31:39;35.93;;;17.83;;
5967;SDS011;3010;51.028;4.170;2023-04-07T04:34:06;40.40;;;17.77;;
5967;SDS011;3010;51.028;4.170;2023-04-07T04:36:33;36.27;;;16.47;;
5967;SDS011;3010;51.028;4.170;2023-04-07T04:38:59;35.23;;;17.70;;
5967;SDS011;3010;51.028;4.170;2023-04-07T04:41:26;41.43;;;18.87;;
5967;SDS011;3010;51.028;4.170;2023-04-07T04:43:52;44.60;;;18.90;;
5967;SDS011;3010;51.028;4.170;2023-04-07T04:46:19;45.07;;;18.77;;
5967;SDS011;3010;51.028;4.170;2023-04-07T04:48:46;41.50;;;19.13;;
5967;SDS011;3010;51.028;4.170;2023-04-07T04:51:12;63.28;;;26.60;;
5967;SDS011;3010;51.028;4.170;2023-04-07T04:53:39;52.33;;;20.23;;
5967;SDS011;3010;51.028;4.170;2023-04-07T04:56:05;48.90;;;21.10;;
5967;SDS011;3010;51.028;4.170;2023-04-07T04:58:32;59.97;;;21.63;;
5967;SDS011;3010;51.028;4.170;2023-04-07T05:00:58;53.53;;;22.33;;
5967;SDS011;3010;51.028;4.170;2023-04-07T05:03:26;54.80;;;21.60;;
5967;SDS011;3010;51.028;4.170;2023-04-07T05:05:52;47.58;;;24.00;;
5967;SDS011;3010;51.028;4.170;2023-04-07T05:08:18;45.20;;;19.90;;
5967;SDS011;3010;51.028;4.170;2023-04-07T05:10:45;53.25;;;24.17;;
5967;SDS011;3010;51.028;4.170;2023-04-07T05:13:11;52.40;;;19.57;;
5967;SDS011;3010;51.028;4.170;2023-04-07T05:15:39;37.27;;;18.80;;
5967;SDS011;3010;51.028;4.170;2023-04-07T05:18:05;39.73;;;19.73;;
5967;SDS011;3010;51.028;4.170;2023-04-07T05:20:31;53.47;;;25.98;;
5967;SDS011;3010;51.028;4.170;2023-04-07T05:22:58;52.77;;;21.57;;
5967;SDS011;3010;51.028;4.170;2023-04-07T05:25:24;51.13;;;22.10;;
5967;SDS011;3010;51.028;4.170;2023-04-07T05:27:51;56.10;;;23.07;;
5967;SDS011;3010;51.028;4.170;2023-04-07T05:30:18;40.40;;;19.87;;
5967;SDS011;3010;51.028;4.170;2023-04-07T05:32:44;47.27;;;20.10;;
5967;SDS011;3010;51.028;4.170;2023-04-07T05:35:11;38.20;;;19.23;;
5967;SDS011;3010;51.028;4.170;2023-04-07T05:37:37;46.83;;;21.10;;
5967;SDS011;3010;51.028;4.170;2023-04-07T05:40:04;42.93;;;20.67;;
5967;SDS011;3010;51.028;4.170;2023-04-07T05:42:31;46.40;;;21.27;;
5967;SDS011;3010;51.028;4.170;2023-04-07T05:44:57;43.20;;;20.10;;
5967;SDS011;3010;51.028;4.170;2023-04-07T05:47:24;54.50;;;25.73;;
5967;SDS011;3010;51.028;4.170;2023-04-07T05:49:50;47.77;;;23.03;;
5967;SDS011;3010;51.028;4.170;2023-04-07T05:52:17;57.05;;;27.48;;
5967;SDS011;3010;51.028;4.170;2023-04-07T05:54:44;48.63;;;22.83;;
5967;SDS011;3010;51.028;4.170;2023-04-07T05:57:10;43.40;;;21.00;;
5967;SDS011;3010;51.028;4.170;2023-04-07T05:59:37;48.23;;;21.47;;
5967;SDS011;3010;51.028;4.170;2023-04-07T06:02:03;60.63;;;28.67;;
5967;SDS011;3010;51.028;4.170;2023-04-07T06:04:30;46.10;;;23.23;;
5967;SDS011;3010;51.028;4.170;2023-04-07T06:06:57;45.50;;;21.23;;
5967;SDS011;3010;51.028;4.170;2023-04-07T06:09:23;45.97;;;22.70;;
5967;SDS011;3010;51.028;4.170;2023-04-07T06:11:50;48.63;;;22.17;;
5967;SDS011;3010;51.028;4.170;2023-04-07T06:14:16;49.93;;;20.70;;
5967;SDS011;3010;51.028;4.170;2023-04-07T06:16:43;44.70;;;21.37;;
5967;SDS011;3010;51.028;4.170;2023-04-07T06:19:09;53.47;;;26.50;;
5967;SDS011;3010;51.028;4.170;2023-04-07T06:21:36;42.93;;;20.53;;
5967;SDS011;3010;51.028;4.170;2023-04-07T06:24:03;44.33;;;23.45;;
5967;SDS011;3010;51.028;4.170;2023-04-07T06:26:29;39.50;;;19.17;;
5967;SDS011;3010;51.028;4.170;2023-04-07T06:28:56;36.93;;;17.87;;
5967;SDS011;3010;51.028;4.170;2023-04-07T06:31:22;33.10;;;17.27;;
5967;SDS011;3010;51.028;4.170;2023-04-07T06:33:49;29.33;;;16.10;;
5967;SDS011;3010;51.028;4.170;2023-04-07T06:36:16;34.07;;;16.70;;
5967;SDS011;3010;51.028;4.170;2023-04-07T06:38:42;35.63;;;19.70;;
5967;SDS011;3010;51.028;4.170;2023-04-07T06:41:09;31.60;;;16.83;;
5967;SDS011;3010;51.028;4.170;2023-04-07T06:43:35;29.67;;;16.20;;
5967;SDS011;3010;51.028;4.170;2023-04-07T06:46:02;26.20;;;14.17;;
5967;SDS011;3010;51.028;4.170;2023-04-07T06:48:29;27.83;;;14.77;;
5967;SDS011;3010;51.028;4.170;2023-04-07T06:50:55;24.53;;;13.93;;
5967;SDS011;3010;51.028;4.170;2023-04-07T06:53:22;22.83;;;12.87;;
5967;SDS011;3010;51.028;4.170;2023-04-07T06:55:48;19.40;;;12.87;;
5967;SDS011;3010;51.028;4.170;2023-04-07T06:58:15;20.70;;;12.77;;
5967;SDS011;3010;51.028;4.170;2023-04-07T07:00:41;22.83;;;11.60;;
5967;SDS011;3010;51.028;4.170;2023-04-07T07:03:08;15.00;;;10.53;;
5967;SDS011;3010;51.028;4.170;2023-04-07T07:05:35;13.10;;;9.30;;
5967;SDS011;3010;51.028;4.170;2023-04-07T07:08:01;16.73;;;8.57;;
5967;SDS011;3010;51.028;4.170;2023-04-07T07:10:28;12.47;;;8.10;;
5967;SDS011;3010;51.028;4.170;2023-04-07T07:12:54;12.50;;;7.97;;
5967;SDS011;3010;51.028;4.170;2023-04-07T07:15:21;13.80;;;8.13;;
5967;SDS011;3010;51.028;4.170;2023-04-07T07:17:48;11.87;;;7.97;;
5967;SDS011;3010;51.028;4.170;2023-04-07T07:20:14;12.60;;;7.27;;
5967;SDS011;3010;51.028;4.170;2023-04-07T07:22:41;13.90;;;7.83;;
5967;SDS011;3010;51.028;4.170;2023-04-07T07:25:07;11.90;;;7.40;;
5967;SDS011;3010;51.028;4.170;2023-04-07T07:27:34;11.30;;;7.70;;
5967;SDS011;3010;51.028;4.170;2023-04-07T07:30:01;12.67;;;8.20;;
5967;SDS011;3010;51.028;4.170;2023-04-07T07:32:27;12.93;;;8.00;;
5967;SDS011;3010;51.028;4.170;2023-04-07T07:34:54;10.13;;;7.73;;
5967;SDS011;3010;51.028;4.170;2023-04-07T07:37:20;10.17;;;7.23;;
5967;SDS011;3010;51.028;4.170;2023-04-07T07:39:47;8.20;;;7.20;;
5967;SDS011;3010;51.028;4.170;2023-04-07T07:42:14;7.10;;;6.43;;
5967;SDS011;3010;51.028;4.170;2023-04-07T07:44:40;6.80;;;5.87;;
5967;SDS011;3010;51.028;4.170;2023-04-07T07:47:07;11.60;;;6.27;;
5967;SDS011;3010;51.028;4.170;2023-04-07T07:49:33;12.07;;;6.47;;
5967;SDS011;3010;51.028;4.170;2023-04-07T07:52:00;7.20;;;6.50;;
5967;SDS011;3010;51.028;4.170;2023-04-07T07:54:26;11.53;;;7.53;;
5967;SDS011;3010;51.028;4.170;2023-04-07T07:56:53;8.73;;;6.57;;
5967;SDS011;3010;51.028;4.170;2023-04-07T07:59:20;8.65;;;6.70;;
5967;SDS011;3010;51.028;4.170;2023-04-07T08:01:46;7.43;;;5.50;;
5967;SDS011;3010;51.028;4.170;2023-04-07T08:04:13;4.80;;;4.40;;
5967;SDS011;3010;51.028;4.170;2023-04-07T08:06:39;4.73;;;3.90;;
5967;SDS011;3010;51.028;4.170;2023-04-07T08:09:06;3.53;;;3.10;;
5967;SDS011;3010;51.028;4.170;2023-04-07T08:11:33;3.20;;;3.00;;
5967;SDS011;3010;51.028;4.170;2023-04-07T08:13:59;5.50;;;4.17;;
5967;SDS011;3010;51.028;4.170;2023-04-07T08:16:26;5.50;;;4.03;;
5967;SDS011;3010;51.028;4.170;2023-04-07T08:18:52;3.73;;;3.00;;
5967;SDS011;3010;51.028;4.170;2023-04-07T08:21:19;5.70;;;2.80;;
5967;SDS011;3010;51.028;4.170;2023-04-07T08:23:45;7.97;;;3.65;;
5967;SDS011;3010;51.028;4.170;2023-04-07T08:26:12;3.03;;;2.80;;
5967;SDS011;3010;51.028;4.170;2023-04-07T08:28:39;3.33;;;3.13;;
5967;SDS011;3010;51.028;4.170;2023-04-07T08:31:05;3.40;;;3.20;;
5967;SDS011;3010;51.028;4.170;2023-04-07T08:33:32;3.57;;;3.27;;
5967;SDS011;3010;51.028;4.170;2023-04-07T08:35:58;7.03;;;3.80;;
5967;SDS011;3010;51.028;4.170;2023-04-07T08:38:25;5.63;;;3.30;;
5967;SDS011;3010;51.028;4.170;2023-04-07T08:40:53;7.35;;;3.42;;
5967;SDS011;3010;51.028;4.170;2023-04-07T08:43:18;3.97;;;3.37;;
5967;SDS011;3010;51.028;4.170;2023-04-07T08:45:45;4.13;;;3.47;;
5967;SDS011;3010;51.028;4.170;2023-04-07T08:48:17;5.33;;;3.70;;
5967;SDS011;3010;51.028;4.170;2023-04-07T08:50:44;8.07;;;4.20;;
5967;SDS011;3010;51.028;4.170;2023-04-07T08:53:13;4.17;;;2.90;;
5967;SDS011;3010;51.028;4.170;2023-04-07T08:55:40;4.17;;;3.10;;
5967;SDS011;3010;51.028;4.170;2023-04-07T08:58:08;4.03;;;3.30;;
5967;SDS011;3010;51.028;4.170;2023-04-07T09:00:32;8.60;;;3.30;;
5967;SDS011;3010;51.028;4.170;2023-04-07T09:02:59;6.13;;;3.50;;
5967;SDS011;3010;51.028;4.170;2023-04-07T09:05:26;3.40;;;3.10;;
5967;SDS011;3010;51.028;4.170;2023-04-07T09:07:52;3.27;;;2.97;;
5967;SDS011;3010;51.028;4.170;2023-04-07T09:10:19;6.20;;;3.07;;
5967;SDS011;3010;51.028;4.170;2023-04-07T09:12:45;2.93;;;2.60;;
5967;SDS011;3010;51.028;4.170;2023-04-07T09:15:12;2.33;;;2.13;;
5967;SDS011;3010;51.028;4.170;2023-04-07T09:17:39;2.53;;;2.33;;
5967;SDS011;3010;51.028;4.170;2023-04-07T09:20:05;2.60;;;2.40;;
5967;SDS011;3010;51.028;4.170;2023-04-07T09:22:35;2.60;;;2.40;;
5967;SDS011;3010;51.028;4.170;2023-04-07T09:25:11;4.03;;;2.50;;
5967;SDS011;3010;51.028;4.170;2023-04-07T09:27:39;6.87;;;2.50;;
5967;SDS011;3010;51.028;4.170;2023-04-07T09:30:13;7.35;;;3.12;;
5967;SDS011;3010;51.028;4.170;2023-04-07T09:32:41;3.40;;;2.63;;
5967;SDS011;3010;51.028;4.170;2023-04-07T09:35:08;6.10;;;3.13;;
5967;SDS011;3010;51.028;4.170;2023-04-07T09:37:34;6.17;;;4.80;;
5967;SDS011;3010;51.028;4.170;2023-04-07T09:40:01;8.47;;;5.07;;
5967;SDS011;3010;51.028;4.170;2023-04-07T09:42:28;5.83;;;4.27;;
5967;SDS011;3010;51.028;4.170;2023-04-07T09:44:58;6.93;;;5.00;;
5967;SDS011;3010;51.028;4.170;2023-04-07T09:47:30;8.83;;;4.30;;
5967;SDS011;3010;51.028;4.170;2023-04-07T09:49:56;7.87;;;3.93;;
5967;SDS011;3010;51.028;4.170;2023-04-07T09:52:47;9.07;;;4.63;;
5967;SDS011;3010;51.028;4.170;2023-04-07T09:54:52;8.67;;;4.57;;
5967;SDS011;3010;51.028;4.170;2023-04-07T09:57:19;5.77;;;4.17;;
5967;SDS011;3010;51.028;4.170;2023-04-07T09:59:45;6.30;;;4.30;;
5967;SDS011;3010;51.028;4.170;2023-04-07T10:02:12;6.50;;;4.80;;
5967;SDS011;3010;51.028;4.170;2023-04-07T10:04:39;5.33;;;4.80;;
5967;SDS011;3010;51.028;4.170;2023-04-07T10:07:05;7.23;;;4.83;;
5967;SDS011;3010;51.028;4.170;2023-04-07T10:09:32;10.55;;;5.45;;
5967;SDS011;3010;51.028;4.170;2023-04-07T10:11:58;6.87;;;4.57;;
5967;SDS011;3010;51.028;4.170;2023-04-07T10:14:26;7.53;;;4.63;;
5967;SDS011;3010;51.028;4.170;2023-04-07T10:16:51;8.67;;;4.00;;
5967;SDS011;3010;51.028;4.170;2023-04-07T10:19:18;10.80;;;4.20;;
5967;SDS011;3010;51.028;4.170;2023-04-07T10:21:45;21.73;;;6.13;;
5967;SDS011;3010;51.028;4.170;2023-04-07T10:24:18;9.90;;;4.13;;
5967;SDS011;3010;51.028;4.170;2023-04-07T10:26:50;12.97;;;4.10;;
5967;SDS011;3010;51.028;4.170;2023-04-07T10:29:13;9.83;;;4.17;;
5967;SDS011;3010;51.028;4.170;2023-04-07T10:31:40;5.67;;;3.23;;
5967;SDS011;3010;51.028;4.170;2023-04-07T10:34:06;4.67;;;3.50;;
5967;SDS011;3010;51.028;4.170;2023-04-07T10:36:33;6.13;;;3.30;;
5967;SDS011;3010;51.028;4.170;2023-04-07T10:41:33;5.93;;;3.03;;
5967;SDS011;3010;51.028;4.170;2023-04-07T10:44:05;5.17;;;3.00;;
5967;SDS011;3010;51.028;4.170;2023-04-07T10:49:13;6.45;;;3.85;;
5967;SDS011;3010;51.028;4.170;2023-04-07T10:51:39;11.60;;;4.07;;
5967;SDS011;3010;51.028;4.170;2023-04-07T10:54:15;6.97;;;3.20;;
5967;SDS011;3010;51.028;4.170;2023-04-07T10:59:35;4.78;;;3.37;;
5967;SDS011;3010;51.028;4.170;2023-04-07T11:02:47;4.43;;;3.00;;
5967;SDS011;3010;51.028;4.170;2023-04-07T11:04:40;5.03;;;2.73;;
5967;SDS011;3010;51.028;4.170;2023-04-07T11:07:08;2.90;;;2.63;;
5967;SDS011;3010;51.028;4.170;2023-04-07T11:09:35;3.23;;;2.43;;
5967;SDS011;3010;51.028;4.170;2023-04-07T11:12:01;7.10;;;2.90;;
5967;SDS011;3010;51.028;4.170;2023-04-07T11:14:29;9.13;;;3.27;;
5967;SDS011;3010;51.028;4.170;2023-04-07T11:16:55;5.60;;;3.03;;
5967;SDS011;3010;51.028;4.170;2023-04-07T11:19:21;2.60;;;2.43;;
5967;SDS011;3010;51.028;4.170;2023-04-07T11:21:48;2.90;;;2.53;;
5967;SDS011;3010;51.028;4.170;2023-04-07T11:24:30;4.80;;;2.67;;
5967;SDS011;3010;51.028;4.170;2023-04-07T11:26:59;2.80;;;2.50;;
5967;SDS011;3010;51.028;4.170;2023-04-07T11:29:32;4.73;;;3.00;;
5967;SDS011;3010;51.028;4.170;2023-04-07T11:32:01;4.75;;;3.22;;
5967;SDS011;3010;51.028;4.170;2023-04-07T11:34:32;5.20;;;3.03;;
5967;SDS011;3010;51.028;4.170;2023-04-07T11:36:54;2.67;;;2.30;;
5967;SDS011;3010;51.028;4.170;2023-04-07T11:39:20;6.70;;;3.03;;
5967;SDS011;3010;51.028;4.170;2023-04-07T11:41:48;6.83;;;2.67;;
5967;SDS011;3010;51.028;4.170;2023-04-07T11:44:14;3.47;;;3.20;;
5967;SDS011;3010;51.028;4.170;2023-04-07T11:46:59;4.10;;;3.70;;
5967;SDS011;3010;51.028;4.170;2023-04-07T11:49:26;3.67;;;3.27;;
5967;SDS011;3010;51.028;4.170;2023-04-07T11:52:01;5.10;;;3.73;;
5967;SDS011;3010;51.028;4.170;2023-04-07T11:54:49;10.07;;;4.07;;
5967;SDS011;3010;51.028;4.170;2023-04-07T11:57:06;4.03;;;3.70;;
5967;SDS011;3010;51.028;4.170;2023-04-07T11:59:32;4.03;;;3.50;;
5967;SDS011;3010;51.028;4.170;2023-04-07T12:01:59;6.37;;;2.80;;
5967;SDS011;3010;51.028;4.170;2023-04-07T12:04:25;3.10;;;2.90;;
5967;SDS011;3010;51.028;4.170;2023-04-07T12:06:52;2.90;;;2.63;;
5967;SDS011;3010;51.028;4.170;2023-04-07T12:09:31;4.00;;;2.70;;
5967;SDS011;3010;51.028;4.170;2023-04-07T12:11:57;6.40;;;3.33;;
5967;SDS011;3010;51.028;4.170;2023-04-07T12:14:24;5.37;;;3.33;;
5967;SDS011;3010;51.028;4.170;2023-04-07T12:16:52;8.85;;;3.65;;
5967;SDS011;3010;51.028;4.170;2023-04-07T12:19:18;7.00;;;4.30;;
5967;SDS011;3010;51.028;4.170;2023-04-07T12:21:45;7.90;;;5.07;;
5967;SDS011;3010;51.028;4.170;2023-04-07T12:24:11;5.83;;;4.47;;
5967;SDS011;3010;51.028;4.170;2023-04-07T12:26:38;8.93;;;4.20;;
5967;SDS011;3010;51.028;4.170;2023-04-07T12:29:05;4.23;;;3.70;;
5967;SDS011;3010;51.028;4.170;2023-04-07T12:31:31;7.10;;;3.80;;
5967;SDS011;3010;51.028;4.170;2023-04-07T12:33:58;5.27;;;3.40;;
5967;SDS011;3010;51.028;4.170;2023-04-07T12:36:25;5.27;;;3.20;;
5967;SDS011;3010;51.028;4.170;2023-04-07T12:38:51;5.37;;;2.70;;
5967;SDS011;3010;51.028;4.170;2023-04-07T12:41:18;2.40;;;2.30;;
5967;SDS011;3010;51.028;4.170;2023-04-07T12:43:44;3.60;;;2.20;;
5967;SDS011;3010;51.028;4.170;2023-04-07T12:46:11;4.67;;;2.70;;
5967;SDS011;3010;51.028;4.170;2023-04-07T12:48:37;3.40;;;2.47;;
5967;SDS011;3010;51.028;4.170;2023-04-07T12:51:04;3.10;;;2.50;;
5967;SDS011;3010;51.028;4.170;2023-04-07T12:53:30;4.83;;;3.50;;
5967;SDS011;3010;51.028;4.170;2023-04-07T12:55:57;5.32;;;3.35;;
5967;SDS011;3010;51.028;4.170;2023-04-07T12:58:24;6.43;;;3.30;;
5967;SDS011;3010;51.028;4.170;2023-04-07T13:00:51;3.93;;;2.90;;
5967;SDS011;3010;51.028;4.170;2023-04-07T13:03:17;6.07;;;3.15;;
5967;SDS011;3010;51.028;4.170;2023-04-07T13:05:43;4.87;;;3.37;;
5967;SDS011;3010;51.028;4.170;2023-04-07T13:08:10;5.13;;;3.30;;
5967;SDS011;3010;51.028;4.170;2023-04-07T13:10:37;3.43;;;2.33;;
5967;SDS011;3010;51.028;4.170;2023-04-07T13:13:03;2.60;;;2.40;;
5967;SDS011;3010;51.028;4.170;2023-04-07T13:15:30;6.50;;;2.47;;
5967;SDS011;3010;51.028;4.170;2023-04-07T13:17:56;3.07;;;2.40;;
5967;SDS011;3010;51.028;4.170;2023-04-07T13:20:23;3.23;;;2.90;;
5967;SDS011;3010;51.028;4.170;2023-04-07T13:22:49;5.20;;;3.40;;
5967;SDS011;3010;51.028;4.170;2023-04-07T13:25:16;3.37;;;2.97;;
5967;SDS011;3010;51.028;4.170;2023-04-07T13:27:43;3.53;;;3.23;;
5967;SDS011;3010;51.028;4.170;2023-04-07T13:30:09;5.53;;;3.77;;
5967;SDS011;3010;51.028;4.170;2023-04-07T13:32:36;5.87;;;3.97;;
5967;SDS011;3010;51.028;4.170;2023-04-07T13:35:03;5.00;;;3.20;;
5967;SDS011;3010;51.028;4.170;2023-04-07T13:37:29;5.87;;;3.90;;
5967;SDS011;3010;51.028;4.170;2023-04-07T13:39:56;7.60;;;3.90;;
5967;SDS011;3010;51.028;4.170;2023-04-07T13:42:22;6.03;;;3.90;;
5967;SDS011;3010;51.028;4.170;2023-04-07T13:44:49;6.57;;;3.40;;
5967;SDS011;3010;51.028;4.170;2023-04-07T13:47:16;3.07;;;2.87;;
5967;SDS011;3010;51.028;4.170;2023-04-07T13:49:45;3.47;;;3.17;;
5967;SDS011;3010;51.028;4.170;2023-04-07T13:52:12;3.10;;;2.93;;
5967;SDS011;3010;51.028;4.170;2023-04-07T13:54:38;2.60;;;2.40;;
5967;SDS011;3010;51.028;4.170;2023-04-07T13:57:05;3.30;;;3.00;;
5967;SDS011;3010;51.028;4.170;2023-04-07T13:59:31;3.50;;;1.90;;
5967;SDS011;3010;51.028;4.170;2023-04-07T14:01:58;2.73;;;1.97;;
5967;SDS011;3010;51.028;4.170;2023-04-07T14:04:24;3.47;;;2.00;;
5967;SDS011;3010;51.028;4.170;2023-04-07T14:06:51;5.83;;;2.03;;
5967;SDS011;3010;51.028;4.170;2023-04-07T14:09:18;3.03;;;1.83;;
5967;SDS011;3010;51.028;4.170;2023-04-07T14:11:44;2.57;;;2.20;;
5967;SDS011;3010;51.028;4.170;2023-04-07T14:14:11;2.33;;;1.83;;
5967;SDS011;3010;51.028;4.170;2023-04-07T14:16:37;3.83;;;2.07;;
5967;SDS011;3010;51.028;4.170;2023-04-07T14:19:04;3.90;;;1.90;;
5967;SDS011;3010;51.028;4.170;2023-04-07T14:21:30;2.40;;;2.10;;
5967;SDS011;3010;51.028;4.170;2023-04-07T14:23:57;3.20;;;2.10;;
5967;SDS011;3010;51.028;4.170;2023-04-07T14:26:24;3.37;;;2.33;;
5967;SDS011;3010;51.028;4.170;2023-04-07T14:28:50;2.83;;;2.50;;
5967;SDS011;3010;51.028;4.170;2023-04-07T14:31:17;3.93;;;2.80;;
5967;SDS011;3010;51.028;4.170;2023-04-07T14:33:44;4.53;;;2.50;;
5967;SDS011;3010;51.028;4.170;2023-04-07T14:36:13;4.37;;;2.50;;
5967;SDS011;3010;51.028;4.170;2023-04-07T14:38:37;5.03;;;2.50;;
5967;SDS011;3010;51.028;4.170;2023-04-07T14:41:03;3.47;;;2.40;;
5967;SDS011;3010;51.028;4.170;2023-04-07T14:43:30;3.10;;;2.80;;
5967;SDS011;3010;51.028;4.170;2023-04-07T14:45:56;6.50;;;2.87;;
5967;SDS011;3010;51.028;4.170;2023-04-07T14:48:23;2.73;;;2.50;;
5967;SDS011;3010;51.028;4.170;2023-04-07T14:50:49;4.90;;;2.83;;
5967;SDS011;3010;51.028;4.170;2023-04-07T14:53:16;3.70;;;2.90;;
5967;SDS011;3010;51.028;4.170;2023-04-07T14:55:43;3.83;;;2.70;;
5967;SDS011;3010;51.028;4.170;2023-04-07T14:58:09;3.07;;;2.57;;
5967;SDS011;3010;51.028;4.170;2023-04-07T15:00:36;5.33;;;3.23;;
5967;SDS011;3010;51.028;4.170;2023-04-07T15:03:03;5.17;;;3.10;;
5967;SDS011;3010;51.028;4.170;2023-04-07T15:05:29;7.50;;;3.20;;
5967;SDS011;3010;51.028;4.170;2023-04-07T15:07:56;2.90;;;2.70;;
5967;SDS011;3010;51.028;4.170;2023-04-07T15:10:22;2.83;;;2.63;;
5967;SDS011;3010;51.028;4.170;2023-04-07T15:12:49;6.60;;;2.67;;
5967;SDS011;3010;51.028;4.170;2023-04-07T15:15:15;5.33;;;3.23;;